Lame Deer, MT

9:36 AM MDT on August 22, 2014 (GMT -0600)
RAWS BADGER PEAK MT US | Change Station
CLOSE
Current Station
Personal Weather Station
Location: Lame Deer, MT
Elevation: 4382 ft
Nearby Weather Stations

Elev 4382 ft 45.65 °N, 106.50 °W | Updated 35 minutes ago

Light Rain
Light Rain Mist
56 °F
Feels Like 56 °F
N
6
Wind Variable Wind from NE
Gusts 8.0 mph

Today
High -- | Low -- °F
--% Chance of Precip.
Yesterday
High -- | Low -- °F
Precip. -- in
6:15 AM 8:01 PM
Waning Crescent, 8% visible
Pressure 30.09 in
Visibility 4.0 miles
Clouds Mostly Cloudy 700 ft
Overcast 1400 ft
Dew Point 55 °F
Humidity 95%
Rainfall 0.45 in
Snow Depth Not available.
UV 1 out of 12
Pollen 6.70 out of 12
Air Quality Not available.
Flu Activity Not available.
SPECI KSHR 221525Z AUTO 34003KT 4SM -RA BR BKN007 OVC014 14/13 A3009 RMK AO2 RAB18 CIG 005V010 P0000 T01440133

More Conditions Fewer Conditions

Pressure 30.09 in
Visibility 4.0 miles
Clouds Mostly Cloudy 700 ft
Overcast 1400 ft
Dew Point 55 °F
Humidity 95%
Rainfall 0.45 in
Snow Depth Not available.
UV 1 out of 12
Pollen 6.70 out of 12
Air Quality Not available.
Flu Activity Not available.
SPECI KSHR 221525Z AUTO 34003KT 4SM -RA BR BKN007 OVC014 14/13 A3009 RMK AO2 RAB18 CIG 005V010 P0000 T01440133

More Conditions Fewer Conditions

10-Day Weather Forecast

Almanac

Astronomy

Aug. 22, 2014 Rise Set
Actual Time 6:15 AM MDT 8:01 PM MDT
Civil Twilight 5:43 AM MDT 8:33 PM MDT
Nautical Twilight 5:05 AM MDT 9:11 PM MDT
Astronomical Twilight 4:23 AM MDT 9:53 PM MDT
Moon 3:36 AM MDT 6:14 PM MDT
Length of Visible Light 14h 49m
Length of Day
13h 46m
Tomorrow will be 2m 58s shorter.
Waning Crescent, 8% of the Moon is Illuminated
Today
Waning Crescent
Aug 25
New
Sep 2
First Quarter
Sep 8
Full
Sep 15
Last Quarter

Today's Extremes

State Highs State Lows

Community

WunderPhotos

Upload Photos

1,746,188 photos uploaded!

WunderBlogs® & News

Nearby

Snow Depth

Station Depth Elevation
Cole Creek 1 in 7850 ft
Burnt Mountain 1 in 5880 ft
Crystal Lake 1 in 6050 ft
White Mill 2 in 8700 ft
Fisher Creek 0 in 9100 ft

Earthquake Activity

City Distance Mag. Time & Date
No recent earthquake activity has been reported nearby.
Minimum magnitude displayed is 2.5.

Coastal Water Temperatures

Place Temperature
No Stations Reporting

Nearby Weather Stations